sensor_id;sensor_type;location;lat;lon;timestamp;P1;durP1;ratioP1;P2;durP2;ratioP2
58468;SDS011;44257;44.804;10.220;2023-03-24T00:02:07;9.50;;;4.97;;
58468;SDS011;44257;44.804;10.220;2023-03-24T00:04:33;8.25;;;4.80;;
58468;SDS011;44257;44.804;10.220;2023-03-24T00:07:00;11.35;;;4.95;;
58468;SDS011;44257;44.804;10.220;2023-03-24T00:09:28;9.32;;;5.18;;
58468;SDS011;44257;44.804;10.220;2023-03-24T00:11:55;11.77;;;5.90;;
58468;SDS011;44257;44.804;10.220;2023-03-24T00:14:21;11.02;;;6.57;;
58468;SDS011;44257;44.804;10.220;2023-03-24T00:16:48;12.45;;;5.93;;
58468;SDS011;44257;44.804;10.220;2023-03-24T00:19:14;10.88;;;6.13;;
58468;SDS011;44257;44.804;10.220;2023-03-24T00:21:41;11.52;;;6.13;;
58468;SDS011;44257;44.804;10.220;2023-03-24T00:24:09;11.35;;;6.80;;
58468;SDS011;44257;44.804;10.220;2023-03-24T00:26:36;12.27;;;6.55;;
58468;SDS011;44257;44.804;10.220;2023-03-24T00:29:05;13.85;;;7.40;;
58468;SDS011;44257;44.804;10.220;2023-03-24T00:31:36;13.88;;;8.07;;
58468;SDS011;44257;44.804;10.220;2023-03-24T00:34:05;12.65;;;7.07;;
58468;SDS011;44257;44.804;10.220;2023-03-24T00:36:32;11.52;;;7.13;;
58468;SDS011;44257;44.804;10.220;2023-03-24T00:38:59;13.43;;;7.15;;
58468;SDS011;44257;44.804;10.220;2023-03-24T00:41:25;13.45;;;7.38;;
58468;SDS011;44257;44.804;10.220;2023-03-24T00:43:56;12.10;;;7.43;;
58468;SDS011;44257;44.804;10.220;2023-03-24T00:46:23;13.95;;;7.10;;
58468;SDS011;44257;44.804;10.220;2023-03-24T00:48:54;11.45;;;6.60;;
58468;SDS011;44257;44.804;10.220;2023-03-24T00:51:36;13.88;;;7.13;;
58468;SDS011;44257;44.804;10.220;2023-03-24T00:54:05;10.52;;;6.63;;
58468;SDS011;44257;44.804;10.220;2023-03-24T00:56:34;13.57;;;7.45;;
58468;SDS011;44257;44.804;10.220;2023-03-24T00:59:02;11.80;;;6.63;;
58468;SDS011;44257;44.804;10.220;2023-03-24T01:01:30;11.38;;;6.45;;
58468;SDS011;44257;44.804;10.220;2023-03-24T01:03:59;13.50;;;7.85;;
58468;SDS011;44257;44.804;10.220;2023-03-24T01:06:26;12.70;;;6.93;;
58468;SDS011;44257;44.804;10.220;2023-03-24T01:08:53;12.80;;;7.07;;
58468;SDS011;44257;44.804;10.220;2023-03-24T01:11:20;12.48;;;6.65;;
58468;SDS011;44257;44.804;10.220;2023-03-24T01:13:47;12.60;;;7.63;;
58468;SDS011;44257;44.804;10.220;2023-03-24T01:16:14;12.80;;;6.75;;
58468;SDS011;44257;44.804;10.220;2023-03-24T01:18:40;13.77;;;6.38;;
58468;SDS011;44257;44.804;10.220;2023-03-24T01:21:07;14.45;;;6.63;;
58468;SDS011;44257;44.804;10.220;2023-03-24T01:23:35;13.20;;;6.97;;
58468;SDS011;44257;44.804;10.220;2023-03-24T01:26:06;10.85;;;6.82;;
58468;SDS011;44257;44.804;10.220;2023-03-24T01:28:35;14.57;;;6.93;;
58468;SDS011;44257;44.804;10.220;2023-03-24T01:31:08;12.60;;;6.88;;
58468;SDS011;44257;44.804;10.220;2023-03-24T01:33:35;11.73;;;6.85;;
58468;SDS011;44257;44.804;10.220;2023-03-24T01:36:02;12.90;;;6.97;;
58468;SDS011;44257;44.804;10.220;2023-03-24T01:38:29;14.85;;;6.82;;
58468;SDS011;44257;44.804;10.220;2023-03-24T01:40:55;16.90;;;7.82;;
58468;SDS011;44257;44.804;10.220;2023-03-24T01:43:22;14.55;;;7.72;;
58468;SDS011;44257;44.804;10.220;2023-03-24T01:48:29;15.68;;;7.53;;
58468;SDS011;44257;44.804;10.220;2023-03-24T01:53:53;12.77;;;7.57;;
58468;SDS011;44257;44.804;10.220;2023-03-24T01:56:25;12.25;;;7.18;;
58468;SDS011;44257;44.804;10.220;2023-03-24T01:58:57;15.38;;;8.02;;
58468;SDS011;44257;44.804;10.220;2023-03-24T02:01:37;16.70;;;9.02;;
58468;SDS011;44257;44.804;10.220;2023-03-24T02:04:20;16.30;;;8.20;;
58468;SDS011;44257;44.804;10.220;2023-03-24T02:06:47;15.40;;;8.35;;
58468;SDS011;44257;44.804;10.220;2023-03-24T02:09:13;16.60;;;8.85;;
58468;SDS011;44257;44.804;10.220;2023-03-24T02:11:39;16.75;;;8.73;;
58468;SDS011;44257;44.804;10.220;2023-03-24T02:14:07;17.42;;;7.97;;
58468;SDS011;44257;44.804;10.220;2023-03-24T02:50:51;14.35;;;8.27;;
58468;SDS011;44257;44.804;10.220;2023-03-24T02:53:21;15.15;;;8.93;;
58468;SDS011;44257;44.804;10.220;2023-03-24T02:56:26;19.08;;;8.80;;
58468;SDS011;44257;44.804;10.220;2023-03-24T02:59:06;12.43;;;6.88;;
58468;SDS011;44257;44.804;10.220;2023-03-24T03:01:49;16.35;;;7.40;;
58468;SDS011;44257;44.804;10.220;2023-03-24T03:04:46;16.10;;;7.82;;
58468;SDS011;44257;44.804;10.220;2023-03-24T03:07:20;16.63;;;8.10;;
58468;SDS011;44257;44.804;10.220;2023-03-24T03:10:02;16.42;;;8.07;;
58468;SDS011;44257;44.804;10.220;2023-03-24T03:12:38;12.93;;;8.25;;
58468;SDS011;44257;44.804;10.220;2023-03-24T03:15:06;15.60;;;8.07;;
58468;SDS011;44257;44.804;10.220;2023-03-24T03:17:39;17.08;;;7.28;;
58468;SDS011;44257;44.804;10.220;2023-03-24T03:20:17;13.00;;;8.10;;
58468;SDS011;44257;44.804;10.220;2023-03-24T03:22:50;17.20;;;9.52;;
58468;SDS011;44257;44.804;10.220;2023-03-24T03:25:33;15.32;;;8.52;;
58468;SDS011;44257;44.804;10.220;2023-03-24T03:28:06;19.27;;;9.30;;
58468;SDS011;44257;44.804;10.220;2023-03-24T03:30:36;13.70;;;8.15;;
58468;SDS011;44257;44.804;10.220;2023-03-24T03:33:11;13.30;;;7.93;;
58468;SDS011;44257;44.804;10.220;2023-03-24T03:38:24;14.25;;;7.80;;
58468;SDS011;44257;44.804;10.220;2023-03-24T03:41:00;15.80;;;8.55;;
58468;SDS011;44257;44.804;10.220;2023-03-24T03:43:33;18.75;;;8.50;;
58468;SDS011;44257;44.804;10.220;2023-03-24T03:45:59;13.75;;;7.88;;
58468;SDS011;44257;44.804;10.220;2023-03-24T03:48:31;14.80;;;8.48;;
58468;SDS011;44257;44.804;10.220;2023-03-24T03:50:58;19.45;;;8.50;;
58468;SDS011;44257;44.804;10.220;2023-03-24T03:53:43;15.57;;;8.98;;
58468;SDS011;44257;44.804;10.220;2023-03-24T03:56:33;16.77;;;8.52;;
58468;SDS011;44257;44.804;10.220;2023-03-24T03:59:35;15.70;;;8.18;;
58468;SDS011;44257;44.804;10.220;2023-03-24T04:13:19;17.70;;;8.98;;
58468;SDS011;44257;44.804;10.220;2023-03-24T04:30:18;16.60;;;9.13;;
58468;SDS011;44257;44.804;10.220;2023-03-24T04:33:02;18.40;;;9.32;;
58468;SDS011;44257;44.804;10.220;2023-03-24T04:35:48;17.33;;;9.13;;
58468;SDS011;44257;44.804;10.220;2023-03-24T04:39:13;20.42;;;9.50;;
58468;SDS011;44257;44.804;10.220;2023-03-24T04:41:49;17.00;;;8.48;;
58468;SDS011;44257;44.804;10.220;2023-03-24T04:44:23;13.95;;;9.45;;
58468;SDS011;44257;44.804;10.220;2023-03-24T04:47:08;20.10;;;10.15;;
58468;SDS011;44257;44.804;10.220;2023-03-24T04:49:37;20.05;;;8.80;;
58468;SDS011;44257;44.804;10.220;2023-03-24T04:52:04;22.05;;;9.38;;
58468;SDS011;44257;44.804;10.220;2023-03-24T04:54:32;16.33;;;8.57;;
58468;SDS011;44257;44.804;10.220;2023-03-24T04:57:03;16.17;;;9.02;;
58468;SDS011;44257;44.804;10.220;2023-03-24T04:59:38;15.70;;;9.07;;
58468;SDS011;44257;44.804;10.220;2023-03-24T05:02:05;16.08;;;8.05;;
58468;SDS011;44257;44.804;10.220;2023-03-24T05:04:31;17.98;;;9.50;;
58468;SDS011;44257;44.804;10.220;2023-03-24T05:07:08;17.05;;;9.48;;
58468;SDS011;44257;44.804;10.220;2023-03-24T05:09:34;18.98;;;8.90;;
58468;SDS011;44257;44.804;10.220;2023-03-24T05:12:01;19.00;;;8.68;;
58468;SDS011;44257;44.804;10.220;2023-03-24T05:14:29;16.55;;;9.15;;
58468;SDS011;44257;44.804;10.220;2023-03-24T05:16:55;19.75;;;9.48;;
58468;SDS011;44257;44.804;10.220;2023-03-24T05:19:23;17.40;;;9.93;;
58468;SDS011;44257;44.804;10.220;2023-03-24T05:21:49;15.15;;;8.73;;
58468;SDS011;44257;44.804;10.220;2023-03-24T05:24:15;18.20;;;9.73;;
58468;SDS011;44257;44.804;10.220;2023-03-24T05:26:42;19.45;;;9.02;;
58468;SDS011;44257;44.804;10.220;2023-03-24T05:29:16;18.17;;;8.93;;
58468;SDS011;44257;44.804;10.220;2023-03-24T05:31:43;17.23;;;8.40;;
58468;SDS011;44257;44.804;10.220;2023-03-24T05:34:17;16.02;;;8.52;;
58468;SDS011;44257;44.804;10.220;2023-03-24T05:36:59;15.73;;;8.20;;
58468;SDS011;44257;44.804;10.220;2023-03-24T05:39:25;11.20;;;5.93;;
58468;SDS011;44257;44.804;10.220;2023-03-24T05:42:02;11.60;;;6.30;;
58468;SDS011;44257;44.804;10.220;2023-03-24T05:44:28;11.00;;;5.68;;
58468;SDS011;44257;44.804;10.220;2023-03-24T05:47:08;9.48;;;4.65;;
58468;SDS011;44257;44.804;10.220;2023-03-24T05:49:34;10.07;;;5.40;;
58468;SDS011;44257;44.804;10.220;2023-03-24T05:52:01;11.57;;;6.72;;
58468;SDS011;44257;44.804;10.220;2023-03-24T05:54:28;8.88;;;5.22;;
58468;SDS011;44257;44.804;10.220;2023-03-24T05:57:15;8.57;;;4.90;;
58468;SDS011;44257;44.804;10.220;2023-03-24T06:00:10;10.95;;;6.18;;
58468;SDS011;44257;44.804;10.220;2023-03-24T06:02:52;10.35;;;6.65;;
58468;SDS011;44257;44.804;10.220;2023-03-24T06:05:36;13.45;;;7.30;;
58468;SDS011;44257;44.804;10.220;2023-03-24T06:08:02;12.85;;;7.10;;
58468;SDS011;44257;44.804;10.220;2023-03-24T06:10:31;18.67;;;7.20;;
58468;SDS011;44257;44.804;10.220;2023-03-24T06:12:58;13.35;;;7.22;;
58468;SDS011;44257;44.804;10.220;2023-03-24T06:15:25;15.27;;;9.25;;
58468;SDS011;44257;44.804;10.220;2023-03-24T06:17:54;16.70;;;9.23;;
58468;SDS011;44257;44.804;10.220;2023-03-24T06:20:30;21.67;;;9.25;;
58468;SDS011;44257;44.804;10.220;2023-03-24T06:23:18;14.48;;;8.77;;
58468;SDS011;44257;44.804;10.220;2023-03-24T06:26:07;20.52;;;9.93;;
58468;SDS011;44257;44.804;10.220;2023-03-24T06:28:43;14.23;;;7.75;;
58468;SDS011;44257;44.804;10.220;2023-03-24T06:31:14;18.38;;;8.05;;
58468;SDS011;44257;44.804;10.220;2023-03-24T06:33:43;14.52;;;8.05;;
58468;SDS011;44257;44.804;10.220;2023-03-24T06:36:09;15.05;;;6.65;;
58468;SDS011;44257;44.804;10.220;2023-03-24T06:38:36;11.55;;;3.25;;
58468;SDS011;44257;44.804;10.220;2023-03-24T06:41:04;7.05;;;2.10;;
58468;SDS011;44257;44.804;10.220;2023-03-24T06:43:31;3.63;;;1.70;;
58468;SDS011;44257;44.804;10.220;2023-03-24T06:45:57;3.90;;;1.83;;
58468;SDS011;44257;44.804;10.220;2023-03-24T06:48:24;1.80;;;1.17;;
58468;SDS011;44257;44.804;10.220;2023-03-24T06:50:59;1.80;;;1.08;;
58468;SDS011;44257;44.804;10.220;2023-03-24T06:53:25;4.00;;;2.40;;
58468;SDS011;44257;44.804;10.220;2023-03-24T06:55:51;3.33;;;1.80;;
58468;SDS011;44257;44.804;10.220;2023-03-24T06:58:20;3.50;;;1.48;;
58468;SDS011;44257;44.804;10.220;2023-03-24T07:01:05;8.13;;;1.27;;
58468;SDS011;44257;44.804;10.220;2023-03-24T07:03:34;6.18;;;1.70;;
58468;SDS011;44257;44.804;10.220;2023-03-24T07:06:23;2.63;;;1.50;;
58468;SDS011;44257;44.804;10.220;2023-03-24T07:08:53;9.48;;;2.30;;
58468;SDS011;44257;44.804;10.220;2023-03-24T07:11:21;21.42;;;5.90;;
58468;SDS011;44257;44.804;10.220;2023-03-24T07:13:51;8.05;;;5.07;;
58468;SDS011;44257;44.804;10.220;2023-03-24T07:16:18;9.32;;;5.30;;
58468;SDS011;44257;44.804;10.220;2023-03-24T07:18:48;15.00;;;6.82;;
58468;SDS011;44257;44.804;10.220;2023-03-24T07:21:15;10.30;;;6.25;;
58468;SDS011;44257;44.804;10.220;2023-03-24T07:23:43;11.32;;;5.90;;
58468;SDS011;44257;44.804;10.220;2023-03-24T07:26:13;12.30;;;6.30;;
58468;SDS011;44257;44.804;10.220;2023-03-24T07:28:41;12.30;;;6.38;;
58468;SDS011;44257;44.804;10.220;2023-03-24T07:31:08;13.77;;;6.50;;
58468;SDS011;44257;44.804;10.220;2023-03-24T07:33:36;9.05;;;5.47;;
58468;SDS011;44257;44.804;10.220;2023-03-24T07:36:02;9.50;;;5.63;;
58468;SDS011;44257;44.804;10.220;2023-03-24T07:38:30;9.45;;;6.05;;
58468;SDS011;44257;44.804;10.220;2023-03-24T07:41:01;11.32;;;6.18;;
58468;SDS011;44257;44.804;10.220;2023-03-24T07:43:30;11.93;;;5.57;;
58468;SDS011;44257;44.804;10.220;2023-03-24T07:46:15;16.08;;;5.80;;
58468;SDS011;44257;44.804;10.220;2023-03-24T07:48:41;16.33;;;6.20;;
58468;SDS011;44257;44.804;10.220;2023-03-24T07:51:07;11.05;;;6.55;;
58468;SDS011;44257;44.804;10.220;2023-03-24T07:53:44;11.57;;;6.78;;
58468;SDS011;44257;44.804;10.220;2023-03-24T07:56:18;14.90;;;6.38;;
58468;SDS011;44257;44.804;10.220;2023-03-24T07:58:50;11.90;;;6.28;;
58468;SDS011;44257;44.804;10.220;2023-03-24T08:01:24;11.85;;;7.05;;
58468;SDS011;44257;44.804;10.220;2023-03-24T08:03:53;13.32;;;7.05;;
58468;SDS011;44257;44.804;10.220;2023-03-24T08:06:51;11.98;;;6.88;;
58468;SDS011;44257;44.804;10.220;2023-03-24T08:09:17;13.80;;;7.07;;
58468;SDS011;44257;44.804;10.220;2023-03-24T08:11:44;13.35;;;7.68;;
58468;SDS011;44257;44.804;10.220;2023-03-24T08:14:10;22.00;;;8.25;;
58468;SDS011;44257;44.804;10.220;2023-03-24T08:16:36;11.05;;;6.80;;
58468;SDS011;44257;44.804;10.220;2023-03-24T08:19:04;11.15;;;6.93;;
58468;SDS011;44257;44.804;10.220;2023-03-24T08:21:30;17.23;;;8.20;;
58468;SDS011;44257;44.804;10.220;2023-03-24T08:23:56;10.68;;;6.88;;
58468;SDS011;44257;44.804;10.220;2023-03-24T08:26:22;14.02;;;7.05;;
58468;SDS011;44257;44.804;10.220;2023-03-24T08:28:50;13.10;;;6.85;;
58468;SDS011;44257;44.804;10.220;2023-03-24T08:31:17;17.35;;;6.70;;
58468;SDS011;44257;44.804;10.220;2023-03-24T08:33:42;12.27;;;7.30;;
58468;SDS011;44257;44.804;10.220;2023-03-24T08:36:09;11.25;;;6.68;;
58468;SDS011;44257;44.804;10.220;2023-03-24T08:38:35;12.85;;;7.57;;
58468;SDS011;44257;44.804;10.220;2023-03-24T08:41:03;13.05;;;6.90;;
58468;SDS011;44257;44.804;10.220;2023-03-24T08:43:33;12.88;;;6.05;;
58468;SDS011;44257;44.804;10.220;2023-03-24T08:46:00;9.30;;;4.70;;
58468;SDS011;44257;44.804;10.220;2023-03-24T08:48:27;6.88;;;3.33;;
58468;SDS011;44257;44.804;10.220;2023-03-24T08:50:54;18.55;;;4.82;;
58468;SDS011;44257;44.804;10.220;2023-03-24T08:53:21;14.20;;;3.67;;
58468;SDS011;44257;44.804;10.220;2023-03-24T08:55:48;3.95;;;2.47;;
58468;SDS011;44257;44.804;10.220;2023-03-24T08:58:18;5.05;;;2.42;;
58468;SDS011;44257;44.804;10.220;2023-03-24T09:00:45;8.02;;;2.80;;
58468;SDS011;44257;44.804;10.220;2023-03-24T09:03:13;8.77;;;2.70;;
58468;SDS011;44257;44.804;10.220;2023-03-24T09:05:45;3.50;;;2.40;;
58468;SDS011;44257;44.804;10.220;2023-03-24T09:08:12;48.35;;;6.88;;
58468;SDS011;44257;44.804;10.220;2023-03-24T09:10:39;5.35;;;2.65;;
58468;SDS011;44257;44.804;10.220;2023-03-24T09:13:05;4.20;;;1.90;;
58468;SDS011;44257;44.804;10.220;2023-03-24T09:15:31;12.95;;;3.75;;
58468;SDS011;44257;44.804;10.220;2023-03-24T09:17:58;18.15;;;3.10;;
58468;SDS011;44257;44.804;10.220;2023-03-24T09:20:25;5.40;;;1.60;;
58468;SDS011;44257;44.804;10.220;2023-03-24T09:22:51;1.65;;;0.80;;
58468;SDS011;44257;44.804;10.220;2023-03-24T09:25:18;4.25;;;1.08;;
58468;SDS011;44257;44.804;10.220;2023-03-24T09:27:45;1.05;;;0.70;;
58468;SDS011;44257;44.804;10.220;2023-03-24T09:30:11;8.32;;;1.58;;
58468;SDS011;44257;44.804;10.220;2023-03-24T09:32:38;2.60;;;0.75;;
58468;SDS011;44257;44.804;10.220;2023-03-24T09:35:04;5.80;;;1.80;;
58468;SDS011;44257;44.804;10.220;2023-03-24T09:37:32;7.82;;;1.35;;
58468;SDS011;44257;44.804;10.220;2023-03-24T09:39:58;1.27;;;0.73;;
58468;SDS011;44257;44.804;10.220;2023-03-24T09:42:28;7.85;;;1.13;;
58468;SDS011;44257;44.804;10.220;2023-03-24T09:44:58;0.93;;;0.50;;
58468;SDS011;44257;44.804;10.220;2023-03-24T09:47:32;1.45;;;0.73;;
58468;SDS011;44257;44.804;10.220;2023-03-24T09:50:03;15.18;;;2.67;;
58468;SDS011;44257;44.804;10.220;2023-03-24T09:52:38;0.77;;;0.57;;
58468;SDS011;44257;44.804;10.220;2023-03-24T09:55:11;7.60;;;1.60;;
58468;SDS011;44257;44.804;10.220;2023-03-24T09:57:50;1.20;;;0.70;;
58468;SDS011;44257;44.804;10.220;2023-03-24T10:00:29;42.50;;;4.47;;
58468;SDS011;44257;44.804;10.220;2023-03-24T10:02:58;17.65;;;3.03;;
58468;SDS011;44257;44.804;10.220;2023-03-24T10:08:46;94.78;;;10.82;;
58468;SDS011;44257;44.804;10.220;2023-03-24T10:14:23;6.57;;;1.55;;
58468;SDS011;44257;44.804;10.220;2023-03-24T10:17:11;1.63;;;0.93;;
58468;SDS011;44257;44.804;10.220;2023-03-24T10:20:42;5.72;;;0.80;;
58468;SDS011;44257;44.804;10.220;2023-03-24T10:23:20;1.35;;;0.80;;
58468;SDS011;44257;44.804;10.220;2023-03-24T10:25:51;2.10;;;0.77;;
58468;SDS011;44257;44.804;10.220;2023-03-24T10:28:19;4.82;;;0.77;;
58468;SDS011;44257;44.804;10.220;2023-03-24T10:30:54;1.88;;;0.88;;
58468;SDS011;44257;44.804;10.220;2023-03-24T10:33:22;5.88;;;0.93;;
58468;SDS011;44257;44.804;10.220;2023-03-24T10:38:52;5.97;;;1.95;;
58468;SDS011;44257;44.804;10.220;2023-03-24T10:41:20;4.93;;;0.80;;
58468;SDS011;44257;44.804;10.220;2023-03-24T10:43:52;1.45;;;0.98;;
58468;SDS011;44257;44.804;10.220;2023-03-24T10:46:21;2.35;;;0.90;;
58468;SDS011;44257;44.804;10.220;2023-03-24T10:48:51;5.25;;;1.08;;
58468;SDS011;44257;44.804;10.220;2023-03-24T10:51:31;3.60;;;1.77;;
58468;SDS011;44257;44.804;10.220;2023-03-24T10:54:16;8.77;;;2.05;;
58468;SDS011;44257;44.804;10.220;2023-03-24T10:59:30;4.47;;;1.38;;
58468;SDS011;44257;44.804;10.220;2023-03-24T11:04:54;6.75;;;1.10;;
58468;SDS011;44257;44.804;10.220;2023-03-24T11:07:27;5.22;;;0.90;;
58468;SDS011;44257;44.804;10.220;2023-03-24T11:12:38;2.30;;;0.98;;
58468;SDS011;44257;44.804;10.220;2023-03-24T11:17:46;3.03;;;1.40;;
58468;SDS011;44257;44.804;10.220;2023-03-24T11:20:36;1.23;;;0.75;;
58468;SDS011;44257;44.804;10.220;2023-03-24T11:23:24;2.63;;;1.30;;
58468;SDS011;44257;44.804;10.220;2023-03-24T11:28:46;3.95;;;1.10;;
58468;SDS011;44257;44.804;10.220;2023-03-24T11:31:22;2.58;;;0.95;;
58468;SDS011;44257;44.804;10.220;2023-03-24T11:33:54;12.10;;;1.17;;
58468;SDS011;44257;44.804;10.220;2023-03-24T11:39:03;4.03;;;0.90;;
58468;SDS011;44257;44.804;10.220;2023-03-24T11:41:50;6.05;;;1.23;;
58468;SDS011;44257;44.804;10.220;2023-03-24T11:44:29;2.90;;;1.00;;
58468;SDS011;44257;44.804;10.220;2023-03-24T11:47:22;4.18;;;1.00;;
58468;SDS011;44257;44.804;10.220;2023-03-24T11:52:57;1.13;;;0.75;;
58468;SDS011;44257;44.804;10.220;2023-03-24T12:03:35;2.30;;;1.00;;
58468;SDS011;44257;44.804;10.220;2023-03-24T12:50:09;7.60;;;1.00;;
58468;SDS011;44257;44.804;10.220;2023-03-24T12:55:39;3.83;;;0.95;;
58468;SDS011;44257;44.804;10.220;2023-03-24T13:06:25;4.53;;;1.10;;
58468;SDS011;44257;44.804;10.220;2023-03-24T13:11:57;3.92;;;1.00;;
58468;SDS011;44257;44.804;10.220;2023-03-24T13:17:21;4.80;;;0.95;;
58468;SDS011;44257;44.804;10.220;2023-03-24T13:19:52;3.78;;;0.88;;
58468;SDS011;44257;44.804;10.220;2023-03-24T13:22:19;2.55;;;0.77;;
58468;SDS011;44257;44.804;10.220;2023-03-24T13:24:48;4.63;;;1.23;;
58468;SDS011;44257;44.804;10.220;2023-03-24T13:27:22;11.98;;;1.20;;
58468;SDS011;44257;44.804;10.220;2023-03-24T13:29:54;3.40;;;0.98;;
58468;SDS011;44257;44.804;10.220;2023-03-24T13:32:29;5.57;;;1.00;;
58468;SDS011;44257;44.804;10.220;2023-03-24T13:37:51;5.72;;;1.10;;
58468;SDS011;44257;44.804;10.220;2023-03-24T13:40:30;2.40;;;0.70;;
58468;SDS011;44257;44.804;10.220;2023-03-24T13:43:12;2.00;;;0.98;;
58468;SDS011;44257;44.804;10.220;2023-03-24T13:45:57;2.78;;;1.20;;
58468;SDS011;44257;44.804;10.220;2023-03-24T13:48:38;7.88;;;1.00;;
58468;SDS011;44257;44.804;10.220;2023-03-24T13:51:18;1.02;;;0.63;;
58468;SDS011;44257;44.804;10.220;2023-03-24T13:54:20;12.73;;;1.48;;
58468;SDS011;44257;44.804;10.220;2023-03-24T13:56:54;3.95;;;0.85;;
58468;SDS011;44257;44.804;10.220;2023-03-24T13:59:40;3.25;;;1.23;;
58468;SDS011;44257;44.804;10.220;2023-03-24T14:07:48;8.55;;;1.42;;
58468;SDS011;44257;44.804;10.220;2023-03-24T14:17:53;3.05;;;0.95;;
58468;SDS011;44257;44.804;10.220;2023-03-24T14:20:34;3.13;;;1.30;;
58468;SDS011;44257;44.804;10.220;2023-03-24T14:25:29;3.38;;;0.98;;
58468;SDS011;44257;44.804;10.220;2023-03-24T14:36:30;2.40;;;1.10;;
58468;SDS011;44257;44.804;10.220;2023-03-24T14:41:47;7.30;;;1.50;;
58468;SDS011;44257;44.804;10.220;2023-03-24T14:44:50;1.00;;;0.60;;
58468;SDS011;44257;44.804;10.220;2023-03-24T14:47:23;12.15;;;5.07;;
58468;SDS011;44257;44.804;10.220;2023-03-24T14:49:54;1.48;;;0.60;;
58468;SDS011;44257;44.804;10.220;2023-03-24T14:55:01;2.53;;;0.95;;
58468;SDS011;44257;44.804;10.220;2023-03-24T14:57:39;1.85;;;0.73;;
58468;SDS011;44257;44.804;10.220;2023-03-24T15:02:43;4.45;;;1.23;;
58468;SDS011;44257;44.804;10.220;2023-03-24T15:05:16;2.45;;;0.68;;
58468;SDS011;44257;44.804;10.220;2023-03-24T15:08:02;2.17;;;0.70;;
58468;SDS011;44257;44.804;10.220;2023-03-24T15:13:28;1.17;;;0.65;;
58468;SDS011;44257;44.804;10.220;2023-03-24T15:15:59;2.80;;;0.93;;
58468;SDS011;44257;44.804;10.220;2023-03-24T15:18:28;1.85;;;0.95;;
58468;SDS011;44257;44.804;10.220;2023-03-24T15:20:54;3.90;;;1.00;;
58468;SDS011;44257;44.804;10.220;2023-03-24T15:23:22;5.40;;;1.10;;
58468;SDS011;44257;44.804;10.220;2023-03-24T15:25:50;5.35;;;1.13;;
58468;SDS011;44257;44.804;10.220;2023-03-24T15:30:52;1.88;;;0.90;;
58468;SDS011;44257;44.804;10.220;2023-03-24T15:33:20;3.85;;;1.00;;
58468;SDS011;44257;44.804;10.220;2023-03-24T15:35:53;2.60;;;1.10;;
58468;SDS011;44257;44.804;10.220;2023-03-24T15:38:26;1.33;;;0.70;;
58468;SDS011;44257;44.804;10.220;2023-03-24T15:40:59;1.58;;;0.80;;
58468;SDS011;44257;44.804;10.220;2023-03-24T15:43:30;1.20;;;0.80;;
58468;SDS011;44257;44.804;10.220;2023-03-24T15:45:56;2.80;;;1.00;;
58468;SDS011;44257;44.804;10.220;2023-03-24T15:48:30;1.60;;;0.82;;
58468;SDS011;44257;44.804;10.220;2023-03-24T15:51:04;2.83;;;0.88;;
58468;SDS011;44257;44.804;10.220;2023-03-24T15:53:46;5.13;;;1.00;;
58468;SDS011;44257;44.804;10.220;2023-03-24T15:58:54;4.35;;;0.90;;
58468;SDS011;44257;44.804;10.220;2023-03-24T16:01:25;3.30;;;1.58;;
58468;SDS011;44257;44.804;10.220;2023-03-24T16:04:00;3.13;;;0.80;;
58468;SDS011;44257;44.804;10.220;2023-03-24T16:06:31;2.58;;;1.10;;
58468;SDS011;44257;44.804;10.220;2023-03-24T16:09:04;2.25;;;0.80;;
58468;SDS011;44257;44.804;10.220;2023-03-24T16:11:34;2.45;;;1.10;;
58468;SDS011;44257;44.804;10.220;2023-03-24T16:14:00;1.17;;;0.68;;
58468;SDS011;44257;44.804;10.220;2023-03-24T16:16:38;2.33;;;0.90;;
58468;SDS011;44257;44.804;10.220;2023-03-24T16:19:06;2.50;;;1.20;;
58468;SDS011;44257;44.804;10.220;2023-03-24T16:21:32;1.05;;;0.60;;
58468;SDS011;44257;44.804;10.220;2023-03-24T16:23:58;2.35;;;1.00;;
58468;SDS011;44257;44.804;10.220;2023-03-24T16:26:25;1.60;;;0.80;;
58468;SDS011;44257;44.804;10.220;2023-03-24T16:28:53;1.77;;;0.80;;
58468;SDS011;44257;44.804;10.220;2023-03-24T16:31:25;5.90;;;0.88;;
58468;SDS011;44257;44.804;10.220;2023-03-24T16:33:55;1.15;;;0.52;;
58468;SDS011;44257;44.804;10.220;2023-03-24T16:36:22;1.95;;;0.73;;
58468;SDS011;44257;44.804;10.220;2023-03-24T16:38:51;1.48;;;0.60;;
58468;SDS011;44257;44.804;10.220;2023-03-24T16:41:18;3.75;;;0.90;;
58468;SDS011;44257;44.804;10.220;2023-03-24T16:43:44;1.60;;;0.70;;
58468;SDS011;44257;44.804;10.220;2023-03-24T16:46:21;3.40;;;1.15;;
58468;SDS011;44257;44.804;10.220;2023-03-24T16:48:50;2.55;;;1.00;;
58468;SDS011;44257;44.804;10.220;2023-03-24T16:51:17;2.67;;;0.95;;
58468;SDS011;44257;44.804;10.220;2023-03-24T16:53:44;3.20;;;0.85;;
58468;SDS011;44257;44.804;10.220;2023-03-24T16:56:12;4.03;;;0.88;;
58468;SDS011;44257;44.804;10.220;2023-03-24T16:58:39;1.67;;;0.80;;
58468;SDS011;44257;44.804;10.220;2023-03-24T17:01:12;1.52;;;0.85;;
58468;SDS011;44257;44.804;10.220;2023-03-24T17:03:54;2.35;;;0.77;;
58468;SDS011;44257;44.804;10.220;2023-03-24T17:06:21;2.10;;;0.80;;
58468;SDS011;44257;44.804;10.220;2023-03-24T17:08:48;1.52;;;0.88;;
58468;SDS011;44257;44.804;10.220;2023-03-24T17:14:04;2.22;;;1.02;;
58468;SDS011;44257;44.804;10.220;2023-03-24T17:16:33;4.00;;;1.23;;
58468;SDS011;44257;44.804;10.220;2023-03-24T17:19:04;7.75;;;1.30;;
58468;SDS011;44257;44.804;10.220;2023-03-24T17:21:31;4.15;;;1.85;;
58468;SDS011;44257;44.804;10.220;2023-03-24T17:24:01;4.03;;;1.00;;
58468;SDS011;44257;44.804;10.220;2023-03-24T17:26:27;2.88;;;1.15;;
58468;SDS011;44257;44.804;10.220;2023-03-24T17:28:54;1.38;;;0.77;;
58468;SDS011;44257;44.804;10.220;2023-03-24T17:31:20;1.55;;;0.70;;
58468;SDS011;44257;44.804;10.220;2023-03-24T17:33:46;2.92;;;0.80;;
58468;SDS011;44257;44.804;10.220;2023-03-24T17:36:13;2.67;;;0.70;;
58468;SDS011;44257;44.804;10.220;2023-03-24T17:38:40;1.50;;;0.75;;
58468;SDS011;44257;44.804;10.220;2023-03-24T17:41:07;1.90;;;0.75;;
58468;SDS011;44257;44.804;10.220;2023-03-24T17:43:49;3.47;;;1.20;;
58468;SDS011;44257;44.804;10.220;2023-03-24T17:46:15;4.50;;;0.95;;
58468;SDS011;44257;44.804;10.220;2023-03-24T17:48:41;1.77;;;0.93;;
58468;SDS011;44257;44.804;10.220;2023-03-24T17:51:06;3.83;;;0.95;;
58468;SDS011;44257;44.804;10.220;2023-03-24T17:53:33;1.30;;;0.80;;
58468;SDS011;44257;44.804;10.220;2023-03-24T17:56:01;2.25;;;0.73;;
58468;SDS011;44257;44.804;10.220;2023-03-24T17:58:32;0.95;;;0.50;;
58468;SDS011;44257;44.804;10.220;2023-03-24T18:01:05;1.83;;;1.00;;
58468;SDS011;44257;44.804;10.220;2023-03-24T18:03:41;2.15;;;0.88;;
58468;SDS011;44257;44.804;10.220;2023-03-24T18:06:08;2.65;;;0.80;;
58468;SDS011;44257;44.804;10.220;2023-03-24T18:08:36;2.20;;;1.20;;
58468;SDS011;44257;44.804;10.220;2023-03-24T18:11:04;5.55;;;0.90;;
58468;SDS011;44257;44.804;10.220;2023-03-24T18:13:37;1.52;;;0.80;;
58468;SDS011;44257;44.804;10.220;2023-03-24T18:16:42;3.38;;;1.08;;
58468;SDS011;44257;44.804;10.220;2023-03-24T18:19:08;5.53;;;0.95;;
58468;SDS011;44257;44.804;10.220;2023-03-24T18:21:34;1.90;;;1.02;;
58468;SDS011;44257;44.804;10.220;2023-03-24T18:24:00;2.03;;;0.70;;
58468;SDS011;44257;44.804;10.220;2023-03-24T18:26:26;3.88;;;0.93;;
58468;SDS011;44257;44.804;10.220;2023-03-24T18:28:53;1.33;;;0.50;;